sensor_id;sensor_type;location;lat;lon;timestamp;P1;durP1;ratioP1;P2;durP2;ratioP2
13026;SDS011;6580;42.680;23.324;2023-04-16T00:02:24;3.80;;;3.03;;
13026;SDS011;6580;42.680;23.324;2023-04-16T00:05:10;4.20;;;3.30;;
13026;SDS011;6580;42.680;23.324;2023-04-16T00:07:56;3.03;;;2.60;;
13026;SDS011;6580;42.680;23.324;2023-04-16T00:10:41;3.93;;;3.00;;
13026;SDS011;6580;42.680;23.324;2023-04-16T00:13:31;3.53;;;3.03;;
13026;SDS011;6580;42.680;23.324;2023-04-16T00:16:16;3.30;;;3.00;;
13026;SDS011;6580;42.680;23.324;2023-04-16T00:19:02;3.33;;;2.60;;
13026;SDS011;6580;42.680;23.324;2023-04-16T00:21:47;4.97;;;3.40;;
13026;SDS011;6580;42.680;23.324;2023-04-16T00:24:32;4.00;;;2.90;;
13026;SDS011;6580;42.680;23.324;2023-04-16T00:27:19;4.43;;;3.20;;
13026;SDS011;6580;42.680;23.324;2023-04-16T00:30:07;3.27;;;2.87;;
13026;SDS011;6580;42.680;23.324;2023-04-16T00:32:53;6.10;;;3.33;;
13026;SDS011;6580;42.680;23.324;2023-04-16T00:35:39;3.70;;;2.83;;
13026;SDS011;6580;42.680;23.324;2023-04-16T00:38:24;3.10;;;2.80;;
13026;SDS011;6580;42.680;23.324;2023-04-16T00:41:12;3.67;;;2.80;;
13026;SDS011;6580;42.680;23.324;2023-04-16T00:43:58;4.30;;;3.60;;
13026;SDS011;6580;42.680;23.324;2023-04-16T00:46:45;4.23;;;3.13;;
13026;SDS011;6580;42.680;23.324;2023-04-16T00:49:30;3.40;;;2.90;;
13026;SDS011;6580;42.680;23.324;2023-04-16T00:52:16;4.60;;;3.80;;
13026;SDS011;6580;42.680;23.324;2023-04-16T00:55:01;4.67;;;3.60;;
13026;SDS011;6580;42.680;23.324;2023-04-16T00:57:47;5.10;;;4.00;;
13026;SDS011;6580;42.680;23.324;2023-04-16T01:00:35;6.70;;;4.20;;
13026;SDS011;6580;42.680;23.324;2023-04-16T01:03:22;5.43;;;4.30;;
13026;SDS011;6580;42.680;23.324;2023-04-16T01:06:08;6.90;;;5.00;;
13026;SDS011;6580;42.680;23.324;2023-04-16T01:08:54;7.33;;;5.60;;
13026;SDS011;6580;42.680;23.324;2023-04-16T01:11:39;6.40;;;4.37;;
13026;SDS011;6580;42.680;23.324;2023-04-16T01:14:25;7.37;;;5.03;;
13026;SDS011;6580;42.680;23.324;2023-04-16T01:17:10;6.60;;;4.43;;
13026;SDS011;6580;42.680;23.324;2023-04-16T01:19:58;6.97;;;4.90;;
13026;SDS011;6580;42.680;23.324;2023-04-16T01:22:45;6.10;;;4.80;;
13026;SDS011;6580;42.680;23.324;2023-04-16T01:25:31;6.33;;;4.30;;
13026;SDS011;6580;42.680;23.324;2023-04-16T01:28:17;6.43;;;5.00;;
13026;SDS011;6580;42.680;23.324;2023-04-16T01:31:02;6.60;;;4.30;;
13026;SDS011;6580;42.680;23.324;2023-04-16T01:33:48;8.50;;;4.47;;
13026;SDS011;6580;42.680;23.324;2023-04-16T01:36:33;7.33;;;4.20;;
13026;SDS011;6580;42.680;23.324;2023-04-16T01:39:20;7.30;;;4.93;;
13026;SDS011;6580;42.680;23.324;2023-04-16T01:42:06;6.40;;;4.57;;
13026;SDS011;6580;42.680;23.324;2023-04-16T01:44:51;7.10;;;4.43;;
13026;SDS011;6580;42.680;23.324;2023-04-16T01:47:37;6.63;;;4.30;;
13026;SDS011;6580;42.680;23.324;2023-04-16T01:50:22;5.10;;;3.77;;
13026;SDS011;6580;42.680;23.324;2023-04-16T01:53:08;5.33;;;4.17;;
13026;SDS011;6580;42.680;23.324;2023-04-16T01:55:58;6.33;;;4.80;;
13026;SDS011;6580;42.680;23.324;2023-04-16T01:58:43;9.13;;;5.37;;
13026;SDS011;6580;42.680;23.324;2023-04-16T02:01:30;9.10;;;5.33;;
13026;SDS011;6580;42.680;23.324;2023-04-16T02:04:15;8.00;;;5.30;;
13026;SDS011;6580;42.680;23.324;2023-04-16T02:07:01;8.20;;;5.20;;
13026;SDS011;6580;42.680;23.324;2023-04-16T02:09:46;6.87;;;4.80;;
13026;SDS011;6580;42.680;23.324;2023-04-16T02:12:34;6.53;;;4.10;;
13026;SDS011;6580;42.680;23.324;2023-04-16T02:15:19;9.43;;;4.83;;
13026;SDS011;6580;42.680;23.324;2023-04-16T02:18:05;7.33;;;4.40;;
13026;SDS011;6580;42.680;23.324;2023-04-16T02:20:50;5.60;;;4.70;;
13026;SDS011;6580;42.680;23.324;2023-04-16T02:23:36;5.37;;;4.43;;
13026;SDS011;6580;42.680;23.324;2023-04-16T02:26:23;7.00;;;4.87;;
13026;SDS011;6580;42.680;23.324;2023-04-16T02:29:10;7.17;;;5.00;;
13026;SDS011;6580;42.680;23.324;2023-04-16T02:31:56;4.93;;;3.93;;
13026;SDS011;6580;42.680;23.324;2023-04-16T02:34:42;8.27;;;5.07;;
13026;SDS011;6580;42.680;23.324;2023-04-16T02:37:27;6.10;;;4.60;;
13026;SDS011;6580;42.680;23.324;2023-04-16T02:40:14;8.07;;;5.20;;
13026;SDS011;6580;42.680;23.324;2023-04-16T02:43:00;5.17;;;4.30;;
13026;SDS011;6580;42.680;23.324;2023-04-16T02:45:46;6.13;;;3.97;;
13026;SDS011;6580;42.680;23.324;2023-04-16T02:48:31;4.37;;;3.33;;
13026;SDS011;6580;42.680;23.324;2023-04-16T02:51:17;4.57;;;2.90;;
13026;SDS011;6580;42.680;23.324;2023-04-16T02:54:03;4.10;;;2.87;;
13026;SDS011;6580;42.680;23.324;2023-04-16T02:56:48;4.93;;;3.17;;
13026;SDS011;6580;42.680;23.324;2023-04-16T02:59:34;3.80;;;3.33;;
13026;SDS011;6580;42.680;23.324;2023-04-16T03:02:24;3.60;;;2.80;;
13026;SDS011;6580;42.680;23.324;2023-04-16T03:05:10;4.63;;;3.50;;
13026;SDS011;6580;42.680;23.324;2023-04-16T03:07:55;5.27;;;3.10;;
13026;SDS011;6580;42.680;23.324;2023-04-16T03:10:40;4.10;;;3.27;;
13026;SDS011;6580;42.680;23.324;2023-04-16T03:13:26;3.47;;;3.03;;
13026;SDS011;6580;42.680;23.324;2023-04-16T03:16:11;3.70;;;3.20;;
13026;SDS011;6580;42.680;23.324;2023-04-16T03:19:00;3.70;;;2.97;;
13026;SDS011;6580;42.680;23.324;2023-04-16T03:21:45;3.47;;;3.13;;
13026;SDS011;6580;42.680;23.324;2023-04-16T03:24:32;3.43;;;2.83;;
13026;SDS011;6580;42.680;23.324;2023-04-16T03:27:17;3.33;;;3.00;;
13026;SDS011;6580;42.680;23.324;2023-04-16T03:30:03;5.47;;;3.23;;
13026;SDS011;6580;42.680;23.324;2023-04-16T03:32:49;5.30;;;3.00;;
13026;SDS011;6580;42.680;23.324;2023-04-16T03:35:37;3.37;;;2.93;;
13026;SDS011;6580;42.680;23.324;2023-04-16T03:38:22;4.97;;;2.87;;
13026;SDS011;6580;42.680;23.324;2023-04-16T03:41:09;4.50;;;2.90;;
13026;SDS011;6580;42.680;23.324;2023-04-16T03:43:55;3.30;;;2.93;;
13026;SDS011;6580;42.680;23.324;2023-04-16T03:46:40;3.93;;;3.20;;
13026;SDS011;6580;42.680;23.324;2023-04-16T03:49:26;5.30;;;2.80;;
13026;SDS011;6580;42.680;23.324;2023-04-16T03:52:12;4.77;;;3.13;;
13026;SDS011;6580;42.680;23.324;2023-04-16T03:54:58;3.07;;;2.77;;
13026;SDS011;6580;42.680;23.324;2023-04-16T03:57:44;5.03;;;3.00;;
13026;SDS011;6580;42.680;23.324;2023-04-16T04:00:29;3.60;;;3.00;;
13026;SDS011;6580;42.680;23.324;2023-04-16T04:03:15;3.70;;;3.40;;
13026;SDS011;6580;42.680;23.324;2023-04-16T04:06:05;3.87;;;3.47;;
13026;SDS011;6580;42.680;23.324;2023-04-16T04:08:54;3.57;;;3.07;;
13026;SDS011;6580;42.680;23.324;2023-04-16T04:11:39;5.43;;;3.27;;
13026;SDS011;6580;42.680;23.324;2023-04-16T04:14:25;4.57;;;4.10;;
13026;SDS011;6580;42.680;23.324;2023-04-16T04:17:10;7.50;;;4.70;;
13026;SDS011;6580;42.680;23.324;2023-04-16T04:19:55;7.47;;;4.60;;
13026;SDS011;6580;42.680;23.324;2023-04-16T04:22:40;7.97;;;4.53;;
13026;SDS011;6580;42.680;23.324;2023-04-16T04:25:27;7.23;;;4.63;;
13026;SDS011;6580;42.680;23.324;2023-04-16T04:28:13;7.67;;;5.07;;
13026;SDS011;6580;42.680;23.324;2023-04-16T04:30:59;7.30;;;5.17;;
13026;SDS011;6580;42.680;23.324;2023-04-16T04:33:45;8.97;;;5.30;;
13026;SDS011;6580;42.680;23.324;2023-04-16T04:36:30;8.77;;;5.27;;
13026;SDS011;6580;42.680;23.324;2023-04-16T04:39:15;9.33;;;4.90;;
13026;SDS011;6580;42.680;23.324;2023-04-16T04:42:05;8.03;;;5.27;;
13026;SDS011;6580;42.680;23.324;2023-04-16T04:44:50;8.57;;;5.60;;
13026;SDS011;6580;42.680;23.324;2023-04-16T04:47:35;8.23;;;5.83;;
13026;SDS011;6580;42.680;23.324;2023-04-16T04:50:21;6.70;;;4.80;;
13026;SDS011;6580;42.680;23.324;2023-04-16T04:53:09;6.87;;;5.30;;
13026;SDS011;6580;42.680;23.324;2023-04-16T04:55:57;5.97;;;4.77;;
13026;SDS011;6580;42.680;23.324;2023-04-16T04:58:44;6.17;;;4.73;;
13026;SDS011;6580;42.680;23.324;2023-04-16T05:01:29;6.37;;;4.67;;
13026;SDS011;6580;42.680;23.324;2023-04-16T05:04:14;8.07;;;5.13;;
13026;SDS011;6580;42.680;23.324;2023-04-16T05:07:05;10.33;;;6.37;;
13026;SDS011;6580;42.680;23.324;2023-04-16T05:09:50;5.43;;;4.90;;
13026;SDS011;6580;42.680;23.324;2023-04-16T05:12:36;7.93;;;5.40;;
13026;SDS011;6580;42.680;23.324;2023-04-16T05:15:26;5.47;;;4.47;;
13026;SDS011;6580;42.680;23.324;2023-04-16T05:18:11;5.80;;;4.83;;
13026;SDS011;6580;42.680;23.324;2023-04-16T05:20:56;6.47;;;4.97;;
13026;SDS011;6580;42.680;23.324;2023-04-16T05:23:42;6.60;;;4.83;;
13026;SDS011;6580;42.680;23.324;2023-04-16T05:26:27;7.13;;;4.50;;
13026;SDS011;6580;42.680;23.324;2023-04-16T05:29:13;7.50;;;4.60;;
13026;SDS011;6580;42.680;23.324;2023-04-16T05:32:01;4.87;;;4.10;;
13026;SDS011;6580;42.680;23.324;2023-04-16T05:34:46;5.10;;;3.83;;
13026;SDS011;6580;42.680;23.324;2023-04-16T05:37:31;6.47;;;4.53;;
13026;SDS011;6580;42.680;23.324;2023-04-16T05:40:18;6.80;;;4.77;;
13026;SDS011;6580;42.680;23.324;2023-04-16T05:43:04;5.87;;;4.00;;
13026;SDS011;6580;42.680;23.324;2023-04-16T05:45:49;5.40;;;4.20;;
13026;SDS011;6580;42.680;23.324;2023-04-16T05:48:38;4.47;;;4.00;;
13026;SDS011;6580;42.680;23.324;2023-04-16T05:51:23;4.77;;;4.30;;
13026;SDS011;6580;42.680;23.324;2023-04-16T05:54:10;5.00;;;4.27;;
13026;SDS011;6580;42.680;23.324;2023-04-16T05:56:56;6.30;;;4.50;;
13026;SDS011;6580;42.680;23.324;2023-04-16T05:59:42;6.03;;;4.53;;
13026;SDS011;6580;42.680;23.324;2023-04-16T06:02:29;4.90;;;4.40;;
13026;SDS011;6580;42.680;23.324;2023-04-16T06:05:17;6.97;;;4.80;;
13026;SDS011;6580;42.680;23.324;2023-04-16T06:08:02;7.03;;;4.03;;
13026;SDS011;6580;42.680;23.324;2023-04-16T06:10:48;4.63;;;4.00;;
13026;SDS011;6580;42.680;23.324;2023-04-16T06:13:33;5.77;;;4.20;;
13026;SDS011;6580;42.680;23.324;2023-04-16T06:16:19;5.70;;;4.43;;
13026;SDS011;6580;42.680;23.324;2023-04-16T06:19:04;8.13;;;5.73;;
13026;SDS011;6580;42.680;23.324;2023-04-16T06:21:51;4.67;;;4.10;;
13026;SDS011;6580;42.680;23.324;2023-04-16T06:24:37;5.30;;;4.63;;
13026;SDS011;6580;42.680;23.324;2023-04-16T06:27:23;6.40;;;4.37;;
13026;SDS011;6580;42.680;23.324;2023-04-16T06:30:10;5.17;;;4.37;;
13026;SDS011;6580;42.680;23.324;2023-04-16T06:32:59;7.17;;;4.20;;
13026;SDS011;6580;42.680;23.324;2023-04-16T06:35:44;5.43;;;4.27;;
13026;SDS011;6580;42.680;23.324;2023-04-16T06:38:31;4.67;;;4.20;;
13026;SDS011;6580;42.680;23.324;2023-04-16T06:41:16;5.93;;;3.67;;
13026;SDS011;6580;42.680;23.324;2023-04-16T06:44:02;7.00;;;4.20;;
13026;SDS011;6580;42.680;23.324;2023-04-16T06:46:47;4.87;;;4.17;;
13026;SDS011;6580;42.680;23.324;2023-04-16T06:49:33;5.97;;;3.30;;
13026;SDS011;6580;42.680;23.324;2023-04-16T06:52:18;6.67;;;4.13;;
13026;SDS011;6580;42.680;23.324;2023-04-16T06:55:05;3.83;;;3.53;;
13026;SDS011;6580;42.680;23.324;2023-04-16T06:57:52;3.90;;;3.50;;
13026;SDS011;6580;42.680;23.324;2023-04-16T07:00:37;4.77;;;3.30;;
13026;SDS011;6580;42.680;23.324;2023-04-16T07:03:23;4.37;;;3.50;;
13026;SDS011;6580;42.680;23.324;2023-04-16T07:06:09;4.53;;;3.70;;
13026;SDS011;6580;42.680;23.324;2023-04-16T07:08:54;7.30;;;3.80;;
13026;SDS011;6580;42.680;23.324;2023-04-16T07:11:41;6.33;;;3.77;;
13026;SDS011;6580;42.680;23.324;2023-04-16T07:14:26;5.10;;;3.87;;
13026;SDS011;6580;42.680;23.324;2023-04-16T07:17:12;5.53;;;4.07;;
13026;SDS011;6580;42.680;23.324;2023-04-16T07:19:58;6.70;;;4.10;;
13026;SDS011;6580;42.680;23.324;2023-04-16T07:22:43;5.40;;;4.43;;
13026;SDS011;6580;42.680;23.324;2023-04-16T07:25:28;5.33;;;4.13;;
13026;SDS011;6580;42.680;23.324;2023-04-16T07:28:16;5.23;;;3.93;;
13026;SDS011;6580;42.680;23.324;2023-04-16T07:31:01;4.60;;;3.90;;
13026;SDS011;6580;42.680;23.324;2023-04-16T07:33:47;4.70;;;3.63;;
13026;SDS011;6580;42.680;23.324;2023-04-16T07:36:32;4.33;;;3.40;;
13026;SDS011;6580;42.680;23.324;2023-04-16T07:39:17;7.17;;;4.33;;
13026;SDS011;6580;42.680;23.324;2023-04-16T07:42:03;5.73;;;4.10;;
13026;SDS011;6580;42.680;23.324;2023-04-16T07:44:49;6.60;;;4.38;;
13026;SDS011;6580;42.680;23.324;2023-04-16T07:47:35;4.65;;;3.90;;
13026;SDS011;6580;42.680;23.324;2023-04-16T07:50:20;4.80;;;4.23;;
13026;SDS011;6580;42.680;23.324;2023-04-16T07:53:06;4.40;;;3.92;;
13026;SDS011;6580;42.680;23.324;2023-04-16T07:55:51;6.10;;;4.00;;
13026;SDS011;6580;42.680;23.324;2023-04-16T07:58:36;5.07;;;4.00;;
13026;SDS011;6580;42.680;23.324;2023-04-16T08:01:23;7.75;;;5.38;;
13026;SDS011;6580;42.680;23.324;2023-04-16T08:04:09;6.70;;;4.18;;
13026;SDS011;6580;42.680;23.324;2023-04-16T08:06:54;5.40;;;4.60;;
13026;SDS011;6580;42.680;23.324;2023-04-16T08:09:45;5.95;;;4.35;;
13026;SDS011;6580;42.680;23.324;2023-04-16T08:12:33;4.90;;;4.50;;
13026;SDS011;6580;42.680;23.324;2023-04-16T08:15:19;4.70;;;3.38;;
13026;SDS011;6580;42.680;23.324;2023-04-16T08:18:06;6.55;;;3.25;;
13026;SDS011;6580;42.680;23.324;2023-04-16T08:20:55;4.03;;;3.20;;
13026;SDS011;6580;42.680;23.324;2023-04-16T08:23:41;3.75;;;3.10;;
13026;SDS011;6580;42.680;23.324;2023-04-16T08:26:29;3.92;;;2.50;;
13026;SDS011;6580;42.680;23.324;2023-04-16T08:29:14;4.60;;;2.80;;
13026;SDS011;6580;42.680;23.324;2023-04-16T08:32:01;5.22;;;3.38;;
13026;SDS011;6580;42.680;23.324;2023-04-16T08:34:50;4.47;;;3.25;;
13026;SDS011;6580;42.680;23.324;2023-04-16T08:37:36;4.18;;;3.33;;
13026;SDS011;6580;42.680;23.324;2023-04-16T08:40:21;5.15;;;3.38;;
13026;SDS011;6580;42.680;23.324;2023-04-16T08:43:09;3.30;;;3.00;;
13026;SDS011;6580;42.680;23.324;2023-04-16T08:45:56;5.22;;;3.55;;
13026;SDS011;6580;42.680;23.324;2023-04-16T08:48:42;12.20;;;10.18;;
13026;SDS011;6580;42.680;23.324;2023-04-16T08:51:33;9.00;;;7.63;;
13026;SDS011;6580;42.680;23.324;2023-04-16T08:54:22;6.35;;;4.40;;
13026;SDS011;6580;42.680;23.324;2023-04-16T08:57:16;3.83;;;3.47;;
13026;SDS011;6580;42.680;23.324;2023-04-16T09:00:04;4.05;;;3.50;;
13026;SDS011;6580;42.680;23.324;2023-04-16T09:02:53;4.20;;;3.00;;
13026;SDS011;6580;42.680;23.324;2023-04-16T09:05:38;2.97;;;2.67;;
13026;SDS011;6580;42.680;23.324;2023-04-16T09:08:27;6.07;;;3.63;;
13026;SDS011;6580;42.680;23.324;2023-04-16T09:11:13;3.13;;;2.63;;
13026;SDS011;6580;42.680;23.324;2023-04-16T09:14:01;3.42;;;3.13;;
13026;SDS011;6580;42.680;23.324;2023-04-16T09:16:48;4.53;;;3.13;;
13026;SDS011;6580;42.680;23.324;2023-04-16T09:19:37;5.43;;;3.00;;
13026;SDS011;6580;42.680;23.324;2023-04-16T09:22:22;4.90;;;3.17;;
13026;SDS011;6580;42.680;23.324;2023-04-16T09:25:10;4.82;;;3.13;;
13026;SDS011;6580;42.680;23.324;2023-04-16T09:27:55;5.85;;;3.70;;
13026;SDS011;6580;42.680;23.324;2023-04-16T09:30:40;3.80;;;2.78;;
13026;SDS011;6580;42.680;23.324;2023-04-16T09:33:26;4.95;;;3.30;;
13026;SDS011;6580;42.680;23.324;2023-04-16T09:36:11;5.13;;;3.40;;
13026;SDS011;6580;42.680;23.324;2023-04-16T09:38:57;5.35;;;3.80;;
13026;SDS011;6580;42.680;23.324;2023-04-16T09:41:45;6.20;;;3.40;;
13026;SDS011;6580;42.680;23.324;2023-04-16T09:44:33;3.85;;;3.55;;
13026;SDS011;6580;42.680;23.324;2023-04-16T09:47:20;4.28;;;2.80;;
13026;SDS011;6580;42.680;23.324;2023-04-16T09:50:07;3.67;;;2.80;;
13026;SDS011;6580;42.680;23.324;2023-04-16T09:52:53;4.22;;;3.03;;
13026;SDS011;6580;42.680;23.324;2023-04-16T09:55:38;3.53;;;3.17;;
13026;SDS011;6580;42.680;23.324;2023-04-16T09:58:25;3.58;;;2.88;;
13026;SDS011;6580;42.680;23.324;2023-04-16T10:01:11;4.15;;;2.95;;
13026;SDS011;6580;42.680;23.324;2023-04-16T10:03:57;3.38;;;2.60;;
13026;SDS011;6580;42.680;23.324;2023-04-16T10:06:42;4.35;;;2.88;;
13026;SDS011;6580;42.680;23.324;2023-04-16T10:09:30;4.15;;;2.95;;
13026;SDS011;6580;42.680;23.324;2023-04-16T10:12:16;4.03;;;3.00;;
13026;SDS011;6580;42.680;23.324;2023-04-16T10:15:03;3.92;;;3.10;;
13026;SDS011;6580;42.680;23.324;2023-04-16T10:17:49;3.88;;;2.97;;
13026;SDS011;6580;42.680;23.324;2023-04-16T10:20:35;6.38;;;3.22;;
13026;SDS011;6580;42.680;23.324;2023-04-16T10:23:20;3.17;;;2.67;;
13026;SDS011;6580;42.680;23.324;2023-04-16T10:26:06;4.53;;;3.03;;
13026;SDS011;6580;42.680;23.324;2023-04-16T10:28:52;3.35;;;2.72;;
13026;SDS011;6580;42.680;23.324;2023-04-16T10:31:40;3.60;;;2.97;;
13026;SDS011;6580;42.680;23.324;2023-04-16T10:34:26;3.35;;;2.80;;
13026;SDS011;6580;42.680;23.324;2023-04-16T10:37:13;4.32;;;3.22;;
13026;SDS011;6580;42.680;23.324;2023-04-16T10:40:00;4.40;;;2.45;;
13026;SDS011;6580;42.680;23.324;2023-04-16T10:43:06;2.80;;;2.60;;
13026;SDS011;6580;42.680;23.324;2023-04-16T10:45:51;2.92;;;2.70;;
13026;SDS011;6580;42.680;23.324;2023-04-16T10:48:39;4.75;;;3.03;;
13026;SDS011;6580;42.680;23.324;2023-04-16T10:51:27;2.70;;;2.38;;
13026;SDS011;6580;42.680;23.324;2023-04-16T10:54:21;3.85;;;2.42;;
13026;SDS011;6580;42.680;23.324;2023-04-16T10:57:08;3.33;;;3.03;;
13026;SDS011;6580;42.680;23.324;2023-04-16T10:59:55;3.13;;;2.88;;
13026;SDS011;6580;42.680;23.324;2023-04-16T11:02:42;5.13;;;4.63;;
13026;SDS011;6580;42.680;23.324;2023-04-16T11:05:36;5.05;;;3.33;;
13026;SDS011;6580;42.680;23.324;2023-04-16T11:08:29;3.47;;;3.17;;
13026;SDS011;6580;42.680;23.324;2023-04-16T11:11:15;3.13;;;2.60;;
13026;SDS011;6580;42.680;23.324;2023-04-16T11:14:01;5.20;;;2.65;;
13026;SDS011;6580;42.680;23.324;2023-04-16T11:16:49;3.28;;;2.97;;
13026;SDS011;6580;42.680;23.324;2023-04-16T11:19:34;4.43;;;2.88;;
13026;SDS011;6580;42.680;23.324;2023-04-16T11:22:20;4.07;;;3.58;;
13026;SDS011;6580;42.680;23.324;2023-04-16T11:25:06;3.17;;;2.63;;
13026;SDS011;6580;42.680;23.324;2023-04-16T11:27:52;3.58;;;3.10;;
13026;SDS011;6580;42.680;23.324;2023-04-16T11:30:37;3.40;;;2.97;;
13026;SDS011;6580;42.680;23.324;2023-04-16T11:33:24;4.38;;;2.97;;
13026;SDS011;6580;42.680;23.324;2023-04-16T11:36:09;5.22;;;3.38;;
13026;SDS011;6580;42.680;23.324;2023-04-16T11:39:01;4.60;;;2.90;;
13026;SDS011;6580;42.680;23.324;2023-04-16T11:41:47;2.53;;;2.33;;
13026;SDS011;6580;42.680;23.324;2023-04-16T11:44:35;3.00;;;2.22;;
13026;SDS011;6580;42.680;23.324;2023-04-16T11:47:21;2.67;;;2.30;;
13026;SDS011;6580;42.680;23.324;2023-04-16T11:50:17;3.42;;;2.90;;
13026;SDS011;6580;42.680;23.324;2023-04-16T11:53:04;3.33;;;2.40;;
13026;SDS011;6580;42.680;23.324;2023-04-16T11:55:51;4.32;;;2.33;;
13026;SDS011;6580;42.680;23.324;2023-04-16T11:58:36;2.78;;;2.58;;
13026;SDS011;6580;42.680;23.324;2023-04-16T12:01:21;3.60;;;2.10;;
13026;SDS011;6580;42.680;23.324;2023-04-16T12:04:07;3.88;;;2.75;;
13026;SDS011;6580;42.680;23.324;2023-04-16T12:07:08;2.60;;;2.40;;
13026;SDS011;6580;42.680;23.324;2023-04-16T12:10:03;3.40;;;2.72;;
13026;SDS011;6580;42.680;23.324;2023-04-16T12:12:51;2.70;;;2.10;;
13026;SDS011;6580;42.680;23.324;2023-04-16T12:15:43;2.92;;;2.45;;
13026;SDS011;6580;42.680;23.324;2023-04-16T12:18:30;4.25;;;2.28;;
13026;SDS011;6580;42.680;23.324;2023-04-16T12:21:15;4.68;;;2.05;;
13026;SDS011;6580;42.680;23.324;2023-04-16T12:24:01;3.13;;;2.42;;
13026;SDS011;6580;42.680;23.324;2023-04-16T12:26:47;2.75;;;2.40;;
13026;SDS011;6580;42.680;23.324;2023-04-16T12:29:39;3.78;;;2.72;;
13026;SDS011;6580;42.680;23.324;2023-04-16T12:32:24;9.68;;;8.20;;
13026;SDS011;6580;42.680;23.324;2023-04-16T12:35:10;2.92;;;2.72;;
13026;SDS011;6580;42.680;23.324;2023-04-16T12:37:55;2.92;;;2.63;;
13026;SDS011;6580;42.680;23.324;2023-04-16T12:40:41;4.25;;;2.40;;
13026;SDS011;6580;42.680;23.324;2023-04-16T12:43:26;2.40;;;2.20;;
13026;SDS011;6580;42.680;23.324;2023-04-16T12:46:13;3.28;;;2.33;;
13026;SDS011;6580;42.680;23.324;2023-04-16T12:48:59;3.00;;;2.75;;
13026;SDS011;6580;42.680;23.324;2023-04-16T12:51:44;2.97;;;2.70;;
13026;SDS011;6580;42.680;23.324;2023-04-16T12:54:30;2.47;;;2.28;;
13026;SDS011;6580;42.680;23.324;2023-04-16T12:57:16;3.63;;;2.38;;
13026;SDS011;6580;42.680;23.324;2023-04-16T13:00:01;4.60;;;2.97;;
13026;SDS011;6580;42.680;23.324;2023-04-16T13:02:50;4.75;;;3.58;;
13026;SDS011;6580;42.680;23.324;2023-04-16T13:05:35;3.90;;;2.90;;
13026;SDS011;6580;42.680;23.324;2023-04-16T13:08:21;3.47;;;2.40;;
13026;SDS011;6580;42.680;23.324;2023-04-16T13:11:06;4.00;;;2.80;;
13026;SDS011;6580;42.680;23.324;2023-04-16T13:13:52;4.88;;;3.25;;
13026;SDS011;6580;42.680;23.324;2023-04-16T13:16:37;3.60;;;3.30;;
13026;SDS011;6580;42.680;23.324;2023-04-16T13:19:24;3.00;;;2.70;;
13026;SDS011;6580;42.680;23.324;2023-04-16T13:22:09;5.55;;;2.97;;
13026;SDS011;6580;42.680;23.324;2023-04-16T13:24:55;4.68;;;3.42;;
13026;SDS011;6580;42.680;23.324;2023-04-16T13:27:40;3.88;;;2.38;;
13026;SDS011;6580;42.680;23.324;2023-04-16T13:30:26;4.15;;;2.83;;
13026;SDS011;6580;42.680;23.324;2023-04-16T13:33:12;3.80;;;2.80;;
13026;SDS011;6580;42.680;23.324;2023-04-16T13:35:59;3.35;;;2.92;;
13026;SDS011;6580;42.680;23.324;2023-04-16T13:38:44;2.53;;;2.33;;
13026;SDS011;6580;42.680;23.324;2023-04-16T13:41:30;2.45;;;2.25;;
13026;SDS011;6580;42.680;23.324;2023-04-16T13:44:15;3.05;;;2.40;;
13026;SDS011;6580;42.680;23.324;2023-04-16T13:47:00;2.42;;;2.10;;
13026;SDS011;6580;42.680;23.324;2023-04-16T13:49:46;2.78;;;2.25;;
13026;SDS011;6580;42.680;23.324;2023-04-16T13:52:32;4.93;;;2.67;;
13026;SDS011;6580;42.680;23.324;2023-04-16T13:55:19;4.25;;;2.20;;
13026;SDS011;6580;42.680;23.324;2023-04-16T13:58:04;2.78;;;2.17;;
13026;SDS011;6580;42.680;23.324;2023-04-16T14:00:50;3.70;;;2.20;;
13026;SDS011;6580;42.680;23.324;2023-04-16T14:03:35;2.90;;;2.60;;
13026;SDS011;6580;42.680;23.324;2023-04-16T14:06:21;2.00;;;1.88;;
13026;SDS011;6580;42.680;23.324;2023-04-16T14:09:08;3.08;;;2.10;;
13026;SDS011;6580;42.680;23.324;2023-04-16T14:11:54;3.30;;;2.20;;
13026;SDS011;6580;42.680;23.324;2023-04-16T14:14:39;4.10;;;2.50;;
13026;SDS011;6580;42.680;23.324;2023-04-16T14:17:25;2.55;;;2.28;;
13026;SDS011;6580;42.680;23.324;2023-04-16T14:20:11;2.22;;;1.77;;
13026;SDS011;6580;42.680;23.324;2023-04-16T14:22:57;2.95;;;2.55;;
13026;SDS011;6580;42.680;23.324;2023-04-16T14:25:44;2.25;;;1.80;;
13026;SDS011;6580;42.680;23.324;2023-04-16T14:28:29;2.40;;;2.20;;
13026;SDS011;6580;42.680;23.324;2023-04-16T14:31:15;3.10;;;2.22;;
13026;SDS011;6580;42.680;23.324;2023-04-16T14:34:01;3.25;;;2.58;;
13026;SDS011;6580;42.680;23.324;2023-04-16T14:36:47;2.40;;;2.20;;
13026;SDS011;6580;42.680;23.324;2023-04-16T14:39:34;2.70;;;2.42;;
13026;SDS011;6580;42.680;23.324;2023-04-16T14:42:23;3.58;;;2.53;;
13026;SDS011;6580;42.680;23.324;2023-04-16T14:45:09;3.20;;;2.90;;
13026;SDS011;6580;42.680;23.324;2023-04-16T14:47:54;3.50;;;2.78;;
13026;SDS011;6580;42.680;23.324;2023-04-16T14:50:40;2.95;;;2.63;;
13026;SDS011;6580;42.680;23.324;2023-04-16T14:53:26;3.75;;;3.38;;
13026;SDS011;6580;42.680;23.324;2023-04-16T14:56:12;6.35;;;2.92;;
13026;SDS011;6580;42.680;23.324;2023-04-16T14:58:59;4.50;;;3.13;;
13026;SDS011;6580;42.680;23.324;2023-04-16T15:01:44;7.63;;;3.67;;
13026;SDS011;6580;42.680;23.324;2023-04-16T15:04:30;3.20;;;2.88;;
13026;SDS011;6580;42.680;23.324;2023-04-16T15:07:15;4.07;;;3.67;;
13026;SDS011;6580;42.680;23.324;2023-04-16T15:10:00;3.93;;;3.33;;
13026;SDS011;6580;42.680;23.324;2023-04-16T15:12:46;3.58;;;2.95;;
13026;SDS011;6580;42.680;23.324;2023-04-16T15:15:33;3.63;;;3.22;;
13026;SDS011;6580;42.680;23.324;2023-04-16T15:18:18;3.08;;;2.88;;
13026;SDS011;6580;42.680;23.324;2023-04-16T15:21:04;4.40;;;3.45;;
13026;SDS011;6580;42.680;23.324;2023-04-16T15:23:49;4.33;;;3.47;;
13026;SDS011;6580;42.680;23.324;2023-04-16T15:26:35;6.13;;;4.15;;
13026;SDS011;6580;42.680;23.324;2023-04-16T15:29:20;4.10;;;3.70;;
13026;SDS011;6580;42.680;23.324;2023-04-16T15:32:07;4.87;;;3.83;;
13026;SDS011;6580;42.680;23.324;2023-04-16T15:34:52;4.18;;;3.67;;
13026;SDS011;6580;42.680;23.324;2023-04-16T15:37:38;6.38;;;3.60;;
13026;SDS011;6580;42.680;23.324;2023-04-16T15:40:23;6.30;;;4.80;;
13026;SDS011;6580;42.680;23.324;2023-04-16T15:43:09;5.47;;;4.13;;
13026;SDS011;6580;42.680;23.324;2023-04-16T15:45:54;3.80;;;3.30;;
13026;SDS011;6580;42.680;23.324;2023-04-16T15:48:41;4.13;;;3.75;;
13026;SDS011;6580;42.680;23.324;2023-04-16T15:51:26;5.43;;;3.70;;
13026;SDS011;6580;42.680;23.324;2023-04-16T15:54:14;4.03;;;3.63;;
13026;SDS011;6580;42.680;23.324;2023-04-16T15:57:00;5.10;;;3.73;;
13026;SDS011;6580;42.680;23.324;2023-04-16T15:59:46;5.03;;;3.60;;
13026;SDS011;6580;42.680;23.324;2023-04-16T16:02:31;4.53;;;3.53;;
13026;SDS011;6580;42.680;23.324;2023-04-16T16:05:18;6.03;;;4.10;;
13026;SDS011;6580;42.680;23.324;2023-04-16T16:08:03;4.40;;;3.57;;
13026;SDS011;6580;42.680;23.324;2023-04-16T16:10:49;3.70;;;3.40;;
13026;SDS011;6580;42.680;23.324;2023-04-16T16:13:35;4.10;;;3.57;;
13026;SDS011;6580;42.680;23.324;2023-04-16T16:16:20;4.35;;;2.70;;
13026;SDS011;6580;42.680;23.324;2023-04-16T16:19:05;3.57;;;3.17;;
13026;SDS011;6580;42.680;23.324;2023-04-16T16:21:52;4.40;;;3.53;;
13026;SDS011;6580;42.680;23.324;2023-04-16T16:24:37;3.80;;;3.50;;
13026;SDS011;6580;42.680;23.324;2023-04-16T16:27:23;4.93;;;3.87;;
13026;SDS011;6580;42.680;23.324;2023-04-16T16:30:09;5.23;;;3.40;;
13026;SDS011;6580;42.680;23.324;2023-04-16T16:32:55;4.30;;;3.27;;
13026;SDS011;6580;42.680;23.324;2023-04-16T16:35:40;4.33;;;3.40;;
13026;SDS011;6580;42.680;23.324;2023-04-16T16:38:27;4.70;;;4.07;;
13026;SDS011;6580;42.680;23.324;2023-04-16T16:41:12;3.40;;;3.10;;
13026;SDS011;6580;42.680;23.324;2023-04-16T16:43:58;3.33;;;3.03;;